»·PEaware :: N56694 KSBA-KSNA

N56694 :: KSBA-KSNA

FLIGHT INFORMATION

Flight Status: Arrived
Operator: Privately registered:
United States
More flights under this callsign
Pilot: Michael M. (12217)
Aircraft: Unknown
(EPIC)
More flights by this aircraft type
Origin: KSBA Santa Barbara Mun
United States
Destination: KSNA John Wayne-Orange Co
United States
More flights between these airports :: More routes between these airports
Route: KWANG VTU V208 SXC SLI
File this flight plan on PilotEdge
Remarks:
Altitude:
(Current/Filed)
9,000ft
Speed:
(Current/Filed)
220kts
Departed: 07-Jul-17 06:01 PM
Arrived: 07-Jul-17 06:50 PM
Distance/Time
Traveled:
108nm/0:49
Distance/Time
To Go:
Arrived

Flight Plot

Page will automatically refresh every two minutes.


Map Options




Map Legend


Flown Route
Filed Route
Departure Airport
Arrival Airport
Navaid (VOR, NDB)
Fix

Horizontal Profiles

Position Reports

Time Latitude Longitude Heading Altitude Ground
Speed
07-Jul-17 17:38 34.422647 -119.835596 340 10ft 0kts
07-Jul-17 17:39 34.422647 -119.835596 340 10ft 0kts
07-Jul-17 17:40 34.422647 -119.835596 340 10ft 0kts
07-Jul-17 17:41 34.422647 -119.835596 340 10ft 0kts
07-Jul-17 17:42 34.422647 -119.835596 340 10ft 0kts
07-Jul-17 17:43 34.422647 -119.835596 340 10ft 0kts
07-Jul-17 17:44 34.422647 -119.835596 340 10ft 0kts
07-Jul-17 17:45 34.422647 -119.835596 340 10ft 0kts
07-Jul-17 17:46 34.422647 -119.835596 340 10ft 0kts
07-Jul-17 17:47 34.422647 -119.835596 340 10ft 0kts
07-Jul-17 17:48 34.422647 -119.835596 340 10ft 0kts
07-Jul-17 17:49 34.422647 -119.835596 340 10ft 0kts
07-Jul-17 17:50 34.422647 -119.835596 340 10ft 0kts
07-Jul-17 17:51 34.422647 -119.835596 340 10ft 0kts
07-Jul-17 17:52 34.422647 -119.835596 340 10ft 0kts
07-Jul-17 17:53 34.422647 -119.835596 340 10ft 0kts
07-Jul-17 17:54 34.422647 -119.835596 340 10ft 0kts
07-Jul-17 17:55 34.422647 -119.835596 340 10ft 0kts
07-Jul-17 17:56 34.422647 -119.835596 340 10ft 0kts
07-Jul-17 17:57 34.422633 -119.836396 276 11ft 7kts
07-Jul-17 17:58 34.423876 -119.837482 345 12ft 11kts
07-Jul-17 17:59 34.426621 -119.838185 43 10ft 13kts
07-Jul-17 18:00 34.427060 -119.834651 353 10ft 0kts
07-Jul-17 18:01 34.427069 -119.834652 353 10ft 0kts
07-Jul-17 18:02 34.427069 -119.834652 353 10ft 0kts
07-Jul-17 18:03 34.427187 -119.834685 344 10ft 10kts
07-Jul-17 18:04 34.427500 -119.866221 271 1033ft 168kts
07-Jul-17 18:05 34.435302 -119.941005 270 1983ft 262kts
07-Jul-17 18:06 34.407267 -120.016492 191 2970ft 283kts
07-Jul-17 18:07 34.328445 -120.028020 182 3745ft 290kts
07-Jul-17 18:08 34.291185 -119.967912 53 3926ft 298kts
07-Jul-17 18:09 34.330116 -119.889756 62 4771ft 255kts
07-Jul-17 18:10 34.358533 -119.835698 35 8031ft 148kts
07-Jul-17 18:11 34.369120 -119.793640 101 8978ft 187kts
07-Jul-17 18:12 34.362643 -119.734783 80 9006ft 232kts
07-Jul-17 18:13 34.381830 -119.650881 133 8999ft 249kts
07-Jul-17 18:14 34.334788 -119.588721 119 9001ft 256kts
07-Jul-17 18:15 34.307280 -119.508948 117 8998ft 258kts
07-Jul-17 18:16 34.280337 -119.444672 117 8998ft 252kts
07-Jul-17 18:17 34.250507 -119.372561 116 8997ft 230kts
07-Jul-17 18:18 34.224842 -119.307258 115 8998ft 221kts
07-Jul-17 18:19 34.195282 -119.228499 124 8994ft 222kts
07-Jul-17 18:20 34.168754 -119.175020 119 9000ft 226kts
07-Jul-17 18:21 34.139489 -119.107297 118 8999ft 228kts
07-Jul-17 18:22 34.102293 -119.050470 171 9004ft 224kts
07-Jul-17 18:23 34.030066 -119.040773 175 8999ft 225kts
07-Jul-17 18:24 33.978113 -119.035137 175 8999ft 225kts
07-Jul-17 18:25 33.915681 -119.028559 175 8999ft 225kts
07-Jul-17 18:26 33.868314 -119.023597 175 9000ft 225kts
07-Jul-17 18:27 33.805803 -119.017062 175 9000ft 225kts
07-Jul-17 18:28 33.759354 -118.969187 131 9000ft 228kts
07-Jul-17 18:29 33.718469 -118.910913 130 9000ft 228kts
07-Jul-17 18:30 33.678513 -118.853509 130 9200ft 222kts
07-Jul-17 18:31 33.637716 -118.794929 130 9204ft 238kts
07-Jul-17 18:32 33.594254 -118.732606 130 9202ft 249kts
07-Jul-17 18:33 33.549779 -118.668933 130 9199ft 244kts
07-Jul-17 18:34 33.507019 -118.607825 130 9200ft 236kts
07-Jul-17 18:35 33.468645 -118.553074 130 9201ft 233kts
07-Jul-17 18:36 33.429517 -118.497332 130 9201ft 231kts
07-Jul-17 18:37 33.388514 -118.438059 119 9194ft 231kts
07-Jul-17 18:38 33.420025 -118.378742 37 9202ft 235kts
07-Jul-17 18:39 33.470184 -118.333519 36 9201ft 235kts
07-Jul-17 18:40 33.518374 -118.290697 36 9201ft 235kts
07-Jul-17 18:41 33.571573 -118.243457 36 8387ft 243kts
07-Jul-17 18:42 33.625634 -118.195389 36 7213ft 234kts
07-Jul-17 18:43 33.672581 -118.153594 36 7194ft 190kts
07-Jul-17 18:44 33.711437 -118.118436 41 7168ft 164kts
07-Jul-17 18:45 33.747646 -118.071852 61 5380ft 217kts
07-Jul-17 18:46 33.778089 -118.005568 61 3405ft 232kts
07-Jul-17 18:47 33.805532 -117.946029 61 3196ft 181kts
07-Jul-17 18:48 33.804942 -117.889837 101 3200ft 169kts
07-Jul-17 18:49 33.790564 -117.837307 134 3097ft 167kts
07-Jul-17 18:50 33.745674 -117.823365 190 2063ft 167kts
07-Jul-17 18:51 33.710679 -117.846036 208 848ft 126kts
07-Jul-17 18:52 33.680779 -117.865489 206 60ft 102kts
07-Jul-17 18:53 33.674271 -117.870877 300 50ft 0kts
07-Jul-17 18:54 33.674896 -117.871666 28 50ft 0kts
07-Jul-17 18:55 33.674895 -117.871666 32 50ft 0kts
07-Jul-17 18:56 33.674895 -117.871666 32 50ft 0kts
07-Jul-17 18:57 33.674895 -117.871666 32 50ft 0kts
07-Jul-17 18:58 33.674895 -117.871666 32 50ft 0kts
07-Jul-17 18:59 33.674895 -117.871666 32 50ft 0kts
07-Jul-17 19:00 33.674895 -117.871666 32 50ft 0kts
07-Jul-17 19:01 33.674895 -117.871666 32 50ft 0kts
07-Jul-17 19:02 33.674895 -117.871666 32 50ft 0kts
07-Jul-17 19:03 33.674895 -117.871666 32 50ft 0kts
07-Jul-17 19:04 33.674895 -117.871666 32 50ft 0kts

Navigation Log

Ident Type
1. KSBA Airport
2. KWANG Fix
3. VTU Navaid
4. WEEZL Fix
5. SXC Navaid
6. SLI Navaid
7. KSNA Airport